Accueil
METAR-TAF:

METAR-TAF

Aéroports :

Jersey,

Aéroport de Jersey

latitude: 49-13N, longitude: 002-12W, altitude: 84 m

Observation

Le bulletin a été fait il y a 26 minutes, à 08:50 UTC
Vent 11 kt de ouest/nord-ouest
Température 16°C
Humidité 77%
Pression 1021 hPa
Visibilité 10 km ou plus
Quelques nuages à une hauteur de 1800 ft

METAR: EGJJ 190850Z 30011KT 9999 FEW018 16/12 Q1021 NOSIG

Heure: 10:16 (09:16 UTC)

Prévision

Le bulletin a été fait il y a 1 heure et 17 minutes, à 07:59 UTC
Prévision valable du 19 à 09 UTC au 19 à 18 UTC
Vent 14 kt de ouest/nord-ouest
Visibilité 10 km ou plus
Nuages épars à une hauteur de 1800 ft
Probabilité 30% :
Temporairement
du 19 à 09 UTC au 19 à 12 UTC
Nuages fragmentés à une hauteur de 1500 ft
averses de pluie

TAF: EGJJ 190759Z 1909/1918 29014KT 9999 SCT018 PROB30 TEMPO 1909/1912 SHRA BKN015

Observations et prévisions météorologiques de plus de 4000 aéroports (messages METAR et TAF).

Les stations disponibles sont représentées par des disques jaunes et rouges sur la carte.

Passer la souris dessus pour voir le nom de la station.

Cliquer dessus pour voir les observations et prévisions météorologiques.

Pour changer de carte: cliquez sur les boutons verts avec une croix noire pour zoomer, sur le bouton vert avec un tiret pour effectuer un zoom arrière, ou sur les flèches vertes pour les cartes adjacentes.


METAR-TAF: